CheckWX is a tool to help pilots better visualize weather data.  It is not intended as a substitute for an official pre-flight weather briefing.

11:24:31 UTC

PAFB TAF
Ladd AAF Airport
Fairbanks/Ft Wainwright, Alaska, USA
TAF PAFB 261500Z 2615/2721 VRB06KT 9999 SCT020 QNH2990INS BECMG 2618/2619 VRB06KT 9999 BKN027 QNH2994INS BECMG 2619/2620 23009KT 9999 FEW035 QNH2995INS TX16/2623Z TN06/2713Z

May-26@
15:00 UTC

May-26 @ 15:00 UTC

May-26@
18:00 UTC

May-26 @ 18:00 UTC

TAF PAFB 261500Z 2615/2721 VRB06KT 9999 SCT020 QNH2990INS

Expired

Wind
  • Variable at 6 KTS
Cloud Levels
  • Scattered at 2,000' AGL

May-26@
18:00 UTC

May-26 @ 18:00 UTC

May-26@
19:00 UTC

May-26 @ 19:00 UTC

BECMG 2618/2619 VRB06KT 9999 BKN027 QNH2994INS

Expired

Wind
  • Variable at 6 KTS
Cloud Levels
  • Broken at 2,700' AGL

May-26@
19:00 UTC

May-26 @ 19:00 UTC

May-27@
21:00 UTC

May-27 @ 21:00 UTC

BECMG 2619/2620 23009KT 9999 FEW035 QNH2995INS TX16/2623Z TN06/2713Z

Becoming

Becoming Conditions expected by Tue, May 26, 2020 @ 20:00 UTC

Wind
  • 230° at 9 KTS
Cloud Levels
  • Few at 3,500' AGL